Fujairah International Airport


Codes: OMFJ/FJR
Name: Fujairah International Airport
City:
Country: United Arab Emirates
Elevation: 152 ft.
Wikipedia:

Photos at Fujairah International Airport


   Photos courtesy of SpottingLog. You can add your own sightings and photos by signing up for a free trial today.



No photos found.

Weather at Fujairah International Airport


Time (UTC)DescriptionTempratureWindCloud coverageVisibilityPressureHumidity
25-Jun-2024 15:00Clear Sky38°C4 mph, S3%10000m995hPa36%
25-Jun-2024 18:00Clear Sky38°C7 mph, W2%10000m995hPa35%
25-Jun-2024 21:00Scattered Clouds37°C7 mph, NW39%10000m995hPa34%
26-Jun-2024 00:00Broken Clouds33°C2 mph, NE81%10000m995hPa44%
26-Jun-2024 03:00Overcast Clouds35°C2 mph, S98%10000m996hPa46%
26-Jun-2024 06:00Scattered Clouds41°C4 mph, SE50%10000m996hPa29%
26-Jun-2024 09:00Clear Sky43°C7 mph, SE0%10000m994hPa27%
26-Jun-2024 12:00Clear Sky41°C9 mph, E0%10000m993hPa33%
26-Jun-2024 15:00Clear Sky37°C4 mph, SW0%10000m995hPa42%
26-Jun-2024 18:00Few Clouds35°C9 mph, W17%10000m996hPa46%
26-Jun-2024 21:00Overcast Clouds34°C9 mph, W100%10000m996hPa46%
27-Jun-2024 00:00Overcast Clouds34°C4 mph, NW98%10000m995hPa33%
27-Jun-2024 03:00Overcast Clouds34°C7 mph, E85%10000m998hPa50%
27-Jun-2024 06:00Scattered Clouds37°C7 mph, E46%10000m999hPa44%
27-Jun-2024 09:00Clear Sky39°C13 mph, E1%10000m997hPa38%
27-Jun-2024 12:00Clear Sky37°C9 mph, E1%10000m997hPa52%
27-Jun-2024 15:00Clear Sky35°C7 mph, SE0%10000m997hPa56%
27-Jun-2024 18:00Clear Sky33°C4 mph, SW0%10000m999hPa65%
27-Jun-2024 21:00Clear Sky33°C2 mph, E0%10000m997hPa50%
28-Jun-2024 00:00Clear Sky30°C4 mph, E9%10000m998hPa81%
28-Jun-2024 03:00Few Clouds32°C4 mph, SE13%10000m999hPa72%
28-Jun-2024 06:00Clear Sky37°C9 mph, SE8%10000m998hPa48%
28-Jun-2024 09:00Clear Sky39°C9 mph, SE4%10000m997hPa41%
28-Jun-2024 12:00Clear Sky38°C9 mph, SE6%10000m995hPa41%
28-Jun-2024 15:00Few Clouds37°C2 mph, S12%10000m995hPa38%
28-Jun-2024 18:00Broken Clouds35°C7 mph, W58%10000m996hPa34%
28-Jun-2024 21:00Overcast Clouds35°C7 mph, W95%10000m995hPa37%
29-Jun-2024 00:00Overcast Clouds33°C2 mph, NW96%10000m995hPa40%
29-Jun-2024 03:00Scattered Clouds34°C4 mph, SE41%10000m997hPa42%
29-Jun-2024 06:00Few Clouds37°C7 mph, SE24%10000m997hPa41%
29-Jun-2024 09:00Scattered Clouds39°C11 mph, E27%10000m996hPa39%
29-Jun-2024 12:00Scattered Clouds37°C11 mph, SE47%10000m994hPa47%
29-Jun-2024 15:00Scattered Clouds36°C9 mph, SE40%10000m994hPa51%
29-Jun-2024 18:00Scattered Clouds34°C4 mph, SW25%10000m996hPa50%
29-Jun-2024 21:00Overcast Clouds33°C4 mph, NE100%10000m996hPa53%
30-Jun-2024 00:00Overcast Clouds30°C7 mph, SE100%10000m997hPa85%
30-Jun-2024 03:00Overcast Clouds31°C4 mph, SE100%10000m998hPa79%
30-Jun-2024 06:00Overcast Clouds36°C7 mph, E100%10000m997hPa58%
30-Jun-2024 09:00Overcast Clouds39°C11 mph, SE90%10000m995hPa49%
30-Jun-2024 12:00Broken Clouds38°C9 mph, SE71%10000m994hPa51%